This is the latest recevied weather packets stored in our database for station/object KM4KBD. If no packets are shown the sender has not sent any weather packets the latest 10 day(s).
| Time | Temp. | Humidity | Pressure | Rain* | Wind** | Luminosity | Snow |
|---|---|---|---|---|---|---|---|
| 1777879233 | 12.22° C | 61% | 1020.2 hPa | 0 mm | - | 0 W/m² | - |
| 1777878930 | 12.22° C | 60% | 1020 hPa | 0 mm | - | 0 W/m² | - |
| 1777878627 | 12.22° C | 60% | 1020 hPa | 0 mm | - | 0 W/m² | - |
| 1777878325 | 12.22° C | 60% | 1020.1 hPa | 0 mm | - | 0 W/m² | - |
| 1777878020 | 12.22° C | 62% | 1020.1 hPa | 0 mm | - | 0 W/m² | - |
| 1777877716 | 12.22° C | 60% | 1019.9 hPa | 0 mm | - | 0 W/m² | - |
| 1777877414 | 12.78° C | 61% | 1019.9 hPa | 0 mm | - | 0 W/m² | - |
| 1777877111 | 12.78° C | 56% | 1019.7 hPa | 0 mm | - | 0 W/m² | - |
| 1777876809 | 12.78° C | 56% | 1020 hPa | 0 mm | - | 0 W/m² | - |
| 1777876506 | 12.78° C | 56% | 1019.9 hPa | 0 mm | - | 0 W/m² | - |
| 1777876202 | 12.78° C | 57% | 1020 hPa | 0 mm | - | 0 W/m² | - |
| 1777875899 | 12.78° C | 57% | 1020 hPa | 0 mm | - | 0 W/m² | - |
| 1777875595 | 12.22° C | 58% | 1020.2 hPa | 0 mm | - | 0 W/m² | - |
| 1777875291 | 12.22° C | 58% | 1020.4 hPa | 0 mm | - | 0 W/m² | - |
| 1777874988 | 12.22° C | 57% | 1020.3 hPa | 0 mm | - | 0 W/m² | - |
| 1777874684 | 12.22° C | 59% | 1020.6 hPa | 0 mm | - | 0 W/m² | - |
| 1777874381 | 12.22° C | 59% | 1020.7 hPa | 0 mm | - | 0 W/m² | - |
| 1777874079 | 12.22° C | 61% | 1020.6 hPa | 0 mm | - | 0 W/m² | - |
| 1777873777 | 11.67° C | 62% | 1020.8 hPa | 0 mm | - | 0 W/m² | - |
| 1777873473 | 11.67° C | 62% | 1020.8 hPa | 0 mm | - | 0 W/m² | - |
| 1777873170 | 11.67° C | 62% | 1020.7 hPa | 0 mm | - | 0 W/m² | - |
| 1777872866 | 11.67° C | 63% | 1021 hPa | 0 mm | - | 0 W/m² | - |
| 1777872565 | 11.67° C | 63% | 1020.8 hPa | 0 mm | - | 0 W/m² | - |
| 1777872262 | 11.67° C | 63% | 1020.9 hPa | 0 mm | - | 0 W/m² | - |
| 1777871960 | 11.67° C | 63% | 1021 hPa | 0 mm | - | 0 W/m² | - |
* Rain latest hour (hover to see other rain measurements)
** Current wind speed in m/s (hover to see current wind gust speed)